This is the latest recevied weather packets stored in our database for station/object IZ5MMH-1. If no packets are shown the sender has not sent any weather packets the latest 10 day(s).
| Time | Temp. | Humidity | Pressure | Rain* | Wind** | Luminosity | Snow |
|---|---|---|---|---|---|---|---|
| 1787984100 | 27.78° C | 54% | 1016.4 hPa | - | - | - | - |
| 1787983501 | 28.33° C | 53% | 1016.3 hPa | - | - | - | - |
| 1787982899 | 28.33° C | 51% | 1016.1 hPa | - | - | - | - |
| 1787982300 | 27.78° C | 54% | 1016.2 hPa | - | - | - | - |
| 1787981700 | 26.67° C | 58% | 1016.3 hPa | - | - | - | - |
| 1787981100 | 26.11° C | 59% | 1016.2 hPa | - | - | - | - |
| 1787980499 | 25.56° C | 60% | 1016.4 hPa | - | - | - | - |
| 1787979900 | 25.56° C | 60% | 1016.4 hPa | - | - | - | - |
| 1787979299 | 25.56° C | 60% | 1016.6 hPa | - | - | - | - |
| 1787978700 | 25.56° C | 58% | 1016.4 hPa | - | - | - | - |
| 1787978100 | 25.56° C | 60% | 1016.6 hPa | - | - | - | - |
| 1787977499 | 25.56° C | 60% | 1016.7 hPa | - | - | - | - |
| 1787976900 | 25.56° C | 59% | 1016.1 hPa | - | - | - | - |
| 1787976299 | 25.56° C | 60% | 1015.6 hPa | - | - | - | - |
| 1787975699 | 25.56° C | 59% | 1015.9 hPa | - | - | - | - |
| 1787975099 | 25.56° C | 61% | 1016 hPa | - | - | - | - |
| 1787974499 | 26.11° C | 61% | 1016 hPa | - | - | - | - |
| 1787973899 | 26.11° C | 61% | 1016.1 hPa | - | - | - | - |
| 1787973299 | 26.11° C | 62% | 1015.8 hPa | - | - | - | - |
| 1787972698 | 26.11° C | 62% | 1015.6 hPa | - | - | - | - |
| 1787972099 | 26.11° C | 62% | 1015.6 hPa | - | - | - | - |
| 1787971499 | 25.56° C | 62% | 1015.5 hPa | - | - | - | - |
| 1787970899 | 25.56° C | 61% | 1015.8 hPa | - | - | - | - |
| 1787970299 | 26.11° C | 62% | 1015.7 hPa | - | - | - | - |
| 1787969700 | 26.11° C | 61% | 1015.6 hPa | - | - | - | - |
* Rain since midnight (hover to see other rain measurements)
** Current wind speed in m/s (hover to see current wind gust speed)